Time;durP1;ratioP1;P1;durP2;ratioP2;P2;SDS_P1;SDS_P2;PMS_P1;PMS_P2;Temp;Humidity;BMP_temperature;BMP_pressure;BME280_temperature;BME280_humidity;BME280_pressure;Samples;Min_cycle;Max_cycle;Signal;HPM_P1;HPM_P2
2020/12/03 00:01:14;;;;;;;52.85;18.05;;;1.20;94.60;;;;;;5026183;28;20728;-75
2020/12/03 00:04:10;;;;;;;60.40;20.17;;;1.30;94.90;;;;;;5017458;28;20279;-76
2020/12/03 00:06:42;;;;;;;53.00;19.92;;;1.30;94.80;;;;;;5030198;28;20228;-74
2020/12/03 00:09:12;;;;;;;49.08;19.63;;;1.30;94.70;;;;;;5028813;28;20638;-77
2020/12/03 00:11:41;;;;;;;58.38;22.35;;;1.30;94.60;;;;;;5042627;28;20204;-76
2020/12/03 00:14:08;;;;;;;48.45;19.17;;;1.40;94.70;;;;;;5038320;28;20189;-75
2020/12/03 00:16:34;;;;;;;61.55;20.73;;;1.40;94.80;;;;;;5033118;28;20193;-77
2020/12/03 00:19:02;;;;;;;47.75;19.50;;;1.40;94.70;;;;;;5034693;28;20344;-77
2020/12/03 00:21:38;;;;;;;55.45;18.85;;;1.50;94.90;;;;;;5024923;28;20204;-78
2020/12/03 00:24:06;;;;;;;58.15;21.55;;;1.50;94.80;;;;;;5014932;28;20196;-78
2020/12/03 00:26:32;;;;;;;58.22;19.55;;;1.50;94.90;;;;;;5029145;28;20324;-76
2020/12/03 00:28:59;;;;;;;53.20;20.20;;;1.50;94.70;;;;;;5031606;28;20262;-76
2020/12/03 00:31:25;;;;;;;64.03;20.10;;;1.60;94.70;;;;;;5028874;28;20651;-79
2020/12/03 00:33:51;;;;;;;61.13;21.20;;;1.60;94.70;;;;;;5012350;28;20185;-76
2020/12/03 00:36:17;;;;;;;51.60;19.40;;;1.60;94.60;;;;;;5011188;28;20201;-77
2020/12/03 00:38:45;;;;;;;63.08;22.33;;;1.60;94.50;;;;;;5027832;28;20252;-78
2020/12/03 00:41:12;;;;;;;62.33;23.52;;;1.50;94.40;;;;;;5027816;28;20194;-77
2020/12/03 00:43:38;;;;;;;57.85;20.90;;;1.40;94.50;;;;;;5029641;28;20220;-78
2020/12/03 00:46:05;;;;;;;65.10;23.58;;;1.40;94.70;;;;;;5017580;28;20233;-78
2020/12/03 00:48:30;;;;;;;61.85;21.85;;;1.40;95.00;;;;;;5030769;28;20201;-76
2020/12/03 00:50:56;;;;;;;61.63;22.20;;;1.40;95.20;;;;;;5031809;28;20188;-75
2020/12/03 00:53:22;;;;;;;56.57;22.00;;;1.40;95.10;;;;;;5019087;28;20433;-79
2020/12/03 00:55:48;;;;;;;50.43;19.73;;;1.40;95.20;;;;;;5030557;28;20181;-79
2020/12/03 00:58:14;;;;;;;59.40;21.20;;;1.50;95.40;;;;;;5018969;28;20189;-77
2020/12/03 01:00:40;;;;;;;51.45;21.20;;;1.60;95.40;;;;;;5025443;28;20190;-77
2020/12/03 01:03:06;;;;;;;60.83;23.13;;;1.60;95.30;;;;;;5023654;28;20189;-76
2020/12/03 01:05:32;;;;;;;44.45;18.15;;;1.70;95.20;;;;;;5030799;28;20496;-79
2020/12/03 01:07:58;;;;;;;58.63;21.30;;;1.70;95.00;;;;;;5031742;28;20185;-75
2020/12/03 01:10:31;;;;;;;50.67;20.73;;;1.80;94.70;;;;;;5030662;28;20255;-76
2020/12/03 01:12:58;;;;;;;55.10;20.77;;;1.70;94.70;;;;;;5032964;28;20427;-76
2020/12/03 01:15:24;;;;;;;71.07;23.02;;;1.70;94.60;;;;;;5031084;28;20199;-76
2020/12/03 01:17:50;;;;;;;55.70;20.08;;;1.70;94.60;;;;;;5028550;28;20208;-75
2020/12/03 01:20:19;;;;;;;52.63;20.40;;;1.70;94.60;;;;;;5030567;28;20235;-77
2020/12/03 01:22:45;;;;;;;52.75;20.95;;;1.70;94.60;;;;;;5029916;28;20428;-76
2020/12/03 01:25:11;;;;;;;58.23;20.53;;;1.70;94.70;;;;;;5030017;28;20243;-76
2020/12/03 01:27:38;;;;;;;58.15;22.30;;;1.70;94.90;;;;;;5030188;28;20430;-78
2020/12/03 01:30:09;;;;;;;52.30;22.38;;;1.60;94.90;;;;;;5033525;28;20607;-79
2020/12/03 01:32:35;;;;;;;53.03;20.38;;;1.50;94.90;;;;;;5034928;28;20196;-78
2020/12/03 01:35:03;;;;;;;65.38;23.27;;;1.50;95.00;;;;;;5036442;28;20199;-78
2020/12/03 01:37:29;;;;;;;54.15;19.33;;;1.60;95.20;;;;;;5035773;28;20569;-77
2020/12/03 01:39:54;;;;;;;50.40;21.00;;;1.60;95.30;;;;;;5034814;28;20205;-77
2020/12/03 01:42:20;;;;;;;54.13;21.43;;;1.70;95.30;;;;;;5032587;28;20213;-77
2020/12/03 01:44:53;;;;;;;49.07;19.37;;;1.80;95.10;;;;;;5033398;28;20235;-77
2020/12/03 01:47:38;;;;;;;53.83;21.63;;;1.80;94.90;;;;;;5037518;28;20181;-75
2020/12/03 01:50:07;;;;;;;59.72;22.52;;;1.80;94.90;;;;;;5034029;28;20225;-76
2020/12/03 01:52:34;;;;;;;55.13;21.00;;;1.80;94.90;;;;;;5033061;28;20187;-76
2020/12/03 01:55:00;;;;;;;57.10;21.02;;;1.80;95.00;;;;;;5033043;28;20220;-75
2020/12/03 01:58:07;;;;;;;68.60;24.27;;;1.80;95.10;;;;;;5019785;28;20186;-76
2020/12/03 02:00:32;;;;;;;57.67;21.02;;;1.80;95.30;;;;;;5047845;28;20212;-77
2020/12/03 02:02:58;;;;;;;59.60;23.20;;;1.90;95.10;;;;;;5032094;28;20738;-75
2020/12/03 02:05:30;;;;;;;58.03;21.30;;;1.90;94.90;;;;;;5019123;28;20208;-77
2020/12/03 02:07:55;;;;;;;56.60;22.30;;;1.90;94.80;;;;;;5049125;28;20310;-76
2020/12/03 02:10:24;;;;;;;58.03;21.77;;;1.90;94.70;;;;;;5049039;28;20334;-76
2020/12/03 02:12:50;;;;;;;58.33;22.20;;;2.00;94.70;;;;;;5031389;28;20238;-77
2020/12/03 02:15:18;;;;;;;52.15;20.40;;;2.00;94.50;;;;;;5042418;28;20201;-77
2020/12/03 02:17:43;;;;;;;54.65;22.25;;;2.00;94.50;;;;;;5017050;28;20327;-76
2020/12/03 02:20:20;;;;;;;50.47;20.00;;;2.00;94.60;;;;;;5017893;28;20232;-74
2020/12/03 02:22:46;;;;;;;64.13;20.90;;;2.00;94.60;;;;;;5017504;28;20857;-74
2020/12/03 02:25:13;;;;;;;60.30;20.55;;;2.10;94.50;;;;;;5032018;28;20212;-75
2020/12/03 02:27:41;;;;;;;47.83;19.08;;;2.00;94.00;;;;;;5037464;28;20267;-75
2020/12/03 02:30:08;;;;;;;59.00;22.90;;;2.00;93.90;;;;;;5029406;28;20220;-76
2020/12/03 02:32:34;;;;;;;55.63;21.13;;;2.00;93.90;;;;;;5028738;28;20200;-75
2020/12/03 02:34:59;;;;;;;52.83;19.97;;;2.00;94.00;;;;;;5038165;28;20220;-76
2020/12/03 02:37:29;;;;;;;61.10;23.10;;;2.00;94.00;;;;;;5032496;28;20181;-76
2020/12/03 02:39:55;;;;;;;61.30;21.83;;;1.90;94.10;;;;;;5032173;28;20526;-76
2020/12/03 02:42:24;;;;;;;65.17;24.53;;;1.90;94.20;;;;;;5031418;28;20732;-75
2020/12/03 02:44:50;;;;;;;65.28;22.40;;;1.80;94.30;;;;;;5031734;28;20510;-76
2020/12/03 02:47:19;;;;;;;66.07;23.63;;;1.70;94.50;;;;;;5032320;28;20181;-77
2020/12/03 02:49:47;;;;;;;59.15;22.70;;;1.70;94.60;;;;;;5032005;28;20258;-75
2020/12/03 02:52:22;;;;;;;62.38;22.30;;;1.50;94.80;;;;;;5029886;28;20265;-75
2020/12/03 02:54:48;;;;;;;57.38;22.50;;;1.60;95.00;;;;;;5031952;28;20188;-76
2020/12/03 02:57:14;;;;;;;64.15;22.33;;;1.70;94.90;;;;;;5030633;28;20283;-77
2020/12/03 02:59:40;;;;;;;60.67;24.00;;;1.70;94.50;;;;;;5032075;28;20563;-76
2020/12/03 03:02:06;;;;;;;61.47;23.57;;;1.70;94.50;;;;;;5017623;28;20339;-76
2020/12/03 03:04:32;;;;;;;60.20;24.47;;;1.70;94.30;;;;;;5031924;28;20420;-76
2020/12/03 03:06:58;;;;;;;56.97;23.02;;;1.70;94.30;;;;;;5038766;28;20431;-76
2020/12/03 03:09:25;;;;;;;66.07;24.00;;;1.70;94.30;;;;;;5044373;28;20546;-76
2020/12/03 03:11:51;;;;;;;68.15;24.98;;;1.70;94.10;;;;;;5048636;28;20177;-75
2020/12/03 03:14:17;;;;;;;55.97;22.70;;;1.60;94.10;;;;;;5037667;28;20706;-76
2020/12/03 03:16:44;;;;;;;71.82;25.67;;;1.50;94.10;;;;;;5032933;28;20185;-76
2020/12/03 03:19:09;;;;;;;55.95;23.50;;;1.50;94.20;;;;;;5036805;28;20717;-76
2020/12/03 03:21:35;;;;;;;64.53;24.23;;;1.40;94.20;;;;;;5033539;28;20227;-77
2020/12/03 03:24:01;;;;;;;63.30;23.07;;;1.40;94.40;;;;;;5032155;28;20239;-76
2020/12/03 03:26:27;;;;;;;63.47;24.07;;;1.40;94.40;;;;;;5032639;28;20467;-75
2020/12/03 03:28:53;;;;;;;58.25;22.23;;;1.40;94.40;;;;;;5031279;28;20941;-76
2020/12/03 03:31:19;;;;;;;76.97;24.67;;;1.40;94.30;;;;;;5019769;28;20264;-79
2020/12/03 03:33:46;;;;;;;62.78;25.00;;;1.40;94.40;;;;;;5033308;28;20188;-76
2020/12/03 03:36:13;;;;;;;61.17;23.55;;;1.40;94.40;;;;;;5034390;28;20263;-77
2020/12/03 03:38:39;;;;;;;58.80;24.05;;;1.30;94.50;;;;;;5040908;28;20703;-76
2020/12/03 03:41:05;;;;;;;60.90;22.13;;;1.30;94.40;;;;;;5043298;28;20189;-76
2020/12/03 03:43:30;;;;;;;68.03;24.07;;;1.30;94.40;;;;;;5044350;28;20416;-75
2020/12/03 03:45:56;;;;;;;63.07;24.20;;;1.30;94.50;;;;;;5046029;28;20471;-76
2020/12/03 03:48:25;;;;;;;75.17;24.77;;;1.20;94.60;;;;;;5021656;28;20289;-76
2020/12/03 03:50:51;;;;;;;68.82;25.20;;;1.20;94.50;;;;;;5032293;28;20540;-77
2020/12/03 03:53:17;;;;;;;61.30;24.20;;;1.20;94.40;;;;;;5018740;28;20268;-77
2020/12/03 03:55:42;;;;;;;68.50;25.53;;;1.20;94.30;;;;;;5031164;28;20428;-74
2020/12/03 03:58:08;;;;;;;68.73;25.50;;;1.20;94.50;;;;;;5018142;28;20190;-75
2020/12/03 04:00:46;;;;;;;59.97;22.80;;;1.20;94.40;;;;;;5024525;28;20214;-77
2020/12/03 04:03:14;;;;;;;62.22;22.58;;;1.20;94.40;;;;;;5010943;28;20432;-77
2020/12/03 04:05:41;;;;;;;62.83;24.45;;;1.30;94.60;;;;;;5021416;28;20217;-76
2020/12/03 04:08:08;;;;;;;57.97;22.00;;;1.50;94.30;;;;;;5025922;28;20188;-75
2020/12/03 04:10:34;;;;;;;63.45;23.42;;;1.50;93.70;;;;;;5030637;28;20319;-74
2020/12/03 04:13:00;;;;;;;57.95;23.25;;;1.50;93.40;;;;;;5028266;28;20211;-77
2020/12/03 04:15:26;;;;;;;69.65;23.98;;;1.60;93.40;;;;;;5030712;28;20192;-76
2020/12/03 04:17:52;;;;;;;52.10;22.98;;;1.70;93.20;;;;;;5029841;28;20196;-76
2020/12/03 04:20:17;;;;;;;58.53;24.17;;;1.70;93.00;;;;;;5030704;28;20209;-75
2020/12/03 04:22:44;;;;;;;68.50;25.30;;;1.70;93.10;;;;;;5029210;28;20189;-78
2020/12/03 04:25:11;;;;;;;59.95;23.25;;;1.70;92.70;;;;;;5029444;28;20308;-75
2020/12/03 04:27:37;;;;;;;58.00;23.40;;;1.80;92.70;;;;;;5027612;28;20194;-76
2020/12/03 04:30:06;;;;;;;53.50;21.60;;;1.80;92.60;;;;;;5019558;28;20205;-75
2020/12/03 04:32:32;;;;;;;55.53;22.00;;;1.80;92.60;;;;;;5016765;28;20656;-76
2020/12/03 04:34:58;;;;;;;53.20;22.60;;;1.90;92.40;;;;;;5030236;28;20185;-77
2020/12/03 04:37:24;;;;;;;49.93;21.20;;;1.90;92.20;;;;;;5015474;28;20247;-77
2020/12/03 04:39:49;;;;;;;63.70;23.90;;;1.80;92.20;;;;;;5018088;28;20763;-77
2020/12/03 04:42:36;;;;;;;53.97;21.97;;;1.80;92.20;;;;;;5028548;28;20498;-75
2020/12/03 04:45:27;;;;;;;55.70;23.50;;;1.70;92.50;;;;;;5028888;28;20643;-76
2020/12/03 04:48:32;;;;;;;64.43;23.92;;;1.70;92.80;;;;;;5033739;28;20236;-80
2020/12/03 04:51:32;;;;;;;58.65;24.42;;;1.70;92.80;;;;;;5022947;28;20278;-75
2020/12/03 04:54:16;;;;;;;57.70;22.45;;;1.70;93.00;;;;;;5028239;28;20557;-76
2020/12/03 04:57:20;;;;;;;58.92;24.98;;;1.60;93.20;;;;;;5016277;28;20193;-76
2020/12/03 04:59:51;;;;;;;52.25;21.40;;;1.60;93.50;;;;;;5028211;28;20213;-76
2020/12/03 05:02:37;;;;;;;53.85;20.92;;;1.70;93.70;;;;;;5028445;28;20204;-75
2020/12/03 05:05:27;;;;;;;56.80;21.52;;;1.70;93.70;;;;;;5027263;28;20616;-77
2020/12/03 05:08:00;;;;;;;56.75;21.20;;;1.70;93.60;;;;;;5030592;28;20212;-76
2020/12/03 05:10:39;;;;;;;51.08;19.65;;;1.70;93.70;;;;;;5023821;28;20205;-74
2020/12/03 05:13:19;;;;;;;56.70;19.85;;;1.80;93.60;;;;;;5034819;28;20935;-76
2020/12/03 05:15:49;;;;;;;43.78;18.70;;;1.80;93.50;;;;;;5019068;28;20267;-76
2020/12/03 05:18:40;;;;;;;47.55;20.35;;;1.80;93.40;;;;;;5027717;28;20181;-75
2020/12/03 05:21:14;;;;;;;52.55;20.20;;;1.80;93.50;;;;;;5016083;28;20197;-76
2020/12/03 05:23:40;;;;;;;44.33;18.88;;;1.90;93.20;;;;;;5019531;28;20198;-75
2020/12/03 05:26:16;;;;;;;37.73;17.37;;;1.90;93.10;;;;;;5010484;28;20217;-76
2020/12/03 05:28:51;;;;;;;42.90;18.25;;;1.90;93.00;;;;;;5024085;28;20228;-76
2020/12/03 05:31:25;;;;;;;46.58;17.20;;;1.90;92.80;;;;;;5020074;28;20189;-76
2020/12/03 05:33:52;;;;;;;42.95;17.20;;;1.90;92.70;;;;;;5034496;28;20221;-74
2020/12/03 05:36:31;;;;;;;42.35;17.27;;;1.90;92.70;;;;;;5038319;28;20830;-76
2020/12/03 05:38:58;;;;;;;35.65;15.45;;;2.00;92.60;;;;;;5032522;28;20251;-76
2020/12/03 05:41:27;;;;;;;40.47;15.85;;;2.00;92.30;;;;;;5029876;28;20242;-75
2020/12/03 05:43:53;;;;;;;42.00;17.25;;;2.00;92.00;;;;;;5028146;28;20215;-77
2020/12/03 05:46:22;;;;;;;42.17;16.40;;;2.00;91.90;;;;;;5029091;28;20212;-76
2020/12/03 05:49:00;;;;;;;44.97;16.83;;;2.00;92.00;;;;;;5029061;28;20209;-75
2020/12/03 05:51:30;;;;;;;41.53;16.08;;;2.10;92.00;;;;;;5029098;28;20220;-76
2020/12/03 05:54:00;;;;;;;38.38;16.73;;;2.10;91.60;;;;;;5029200;28;20184;-76
2020/12/03 05:56:29;;;;;;;39.22;15.10;;;2.10;91.70;;;;;;5028695;28;20853;-75
2020/12/03 05:58:54;;;;;;;36.70;14.25;;;2.20;91.70;;;;;;5029843;28;20216;-76
2020/12/03 06:01:23;;;;;;;30.10;12.80;;;2.20;91.10;;;;;;5029332;28;20197;-75
2020/12/03 06:04:06;;;;;;;28.35;11.45;;;2.20;90.40;;;;;;5028439;28;20200;-75
2020/12/03 06:06:57;;;;;;;30.20;13.05;;;2.30;89.00;;;;;;5029254;28;20212;-76
2020/12/03 06:09:52;;;;;;;30.23;11.57;;;2.30;88.40;;;;;;5028642;28;20723;-76
2020/12/03 06:12:32;;;;;;;29.45;12.73;;;2.30;88.10;;;;;;5028625;28;20273;-77
2020/12/03 06:15:19;;;;;;;26.60;11.57;;;2.40;88.40;;;;;;5036015;28;20184;-75
2020/12/03 06:17:56;;;;;;;31.63;13.55;;;2.40;88.00;;;;;;5036279;28;20199;-78
2020/12/03 06:20:55;;;;;;;27.20;11.45;;;2.50;87.70;;;;;;5038568;28;20205;-75
2020/12/03 06:23:45;;;;;;;41.17;15.02;;;2.40;88.10;;;;;;5039008;28;20504;-78
2020/12/03 06:26:29;;;;;;;23.48;11.20;;;2.40;88.30;;;;;;5038120;28;20355;-75
2020/12/03 06:29:14;;;;;;;22.80;11.07;;;2.50;88.30;;;;;;5035616;28;20760;-76
2020/12/03 06:31:47;;;;;;;23.30;10.02;;;2.50;86.80;;;;;;5036653;28;20750;-76
2020/12/03 06:34:31;;;;;;;24.25;11.00;;;2.50;86.20;;;;;;5039378;28;20185;-76
2020/12/03 06:37:04;;;;;;;24.63;11.18;;;2.50;85.60;;;;;;5037067;28;20227;-76
2020/12/03 06:39:42;;;;;;;23.85;10.82;;;2.60;85.50;;;;;;5032940;28;20219;-76
2020/12/03 06:42:37;;;;;;;26.80;12.35;;;2.60;85.30;;;;;;5031438;28;20205;-77
2020/12/03 06:45:34;;;;;;;26.23;11.82;;;2.60;85.60;;;;;;5024502;28;20212;-78
2020/12/03 06:48:24;;;;;;;28.23;12.30;;;2.50;86.30;;;;;;5033096;28;20239;-76
2020/12/03 06:51:14;;;;;;;26.75;12.50;;;2.60;86.90;;;;;;5032782;28;20192;-75
2020/12/03 06:53:58;;;;;;;31.05;13.75;;;2.60;87.10;;;;;;5032645;28;20177;-74
2020/12/03 06:56:32;;;;;;;25.10;13.38;;;2.60;87.40;;;;;;5031429;28;20193;-78
2020/12/03 06:59:01;;;;;;;27.30;12.30;;;2.60;87.70;;;;;;5032138;28;20241;-75
2020/12/03 07:01:45;;;;;;;36.20;12.63;;;2.50;87.70;;;;;;5030837;28;20350;-75
2020/12/03 07:04:39;;;;;;;32.25;13.60;;;2.60;88.00;;;;;;5031869;28;20181;-76
2020/12/03 07:07:25;;;;;;;27.42;12.68;;;2.60;87.80;;;;;;5031814;28;20185;-78
2020/12/03 07:10:12;;;;;;;26.27;12.23;;;2.50;87.70;;;;;;5016413;28;20590;-76
2020/12/03 07:13:23;;;;;;;30.40;12.13;;;2.50;88.10;;;;;;5021784;28;20216;-76
2020/12/03 07:16:13;;;;;;;31.00;12.18;;;2.60;88.00;;;;;;5030195;28;20338;-76
2020/12/03 07:18:54;;;;;;;28.38;13.93;;;2.50;88.00;;;;;;5027913;28;20256;-77
2020/12/03 07:21:50;;;;;;;26.65;12.43;;;2.50;88.10;;;;;;5027922;28;20194;-75
2020/12/03 07:24:30;;;;;;;25.92;12.32;;;2.50;88.10;;;;;;5024530;28;20193;-75
2020/12/03 07:27:33;;;;;;;27.67;11.63;;;2.50;87.70;;;;;;5009875;28;20225;-77
2020/12/03 07:30:21;;;;;;;22.02;11.02;;;2.60;87.40;;;;;;5035531;28;20204;-77
2020/12/03 07:32:50;;;;;;;25.02;12.00;;;2.60;86.80;;;;;;5030223;28;20220;-74
2020/12/03 07:35:29;;;;;;;29.30;11.85;;;2.60;85.90;;;;;;5032828;28;20178;-75
2020/12/03 07:38:15;;;;;;;26.90;13.25;;;2.60;86.20;;;;;;5030713;28;20463;-76
2020/12/03 07:40:41;;;;;;;25.45;11.15;;;2.70;86.20;;;;;;5029975;28;20573;-76
2020/12/03 07:43:28;;;;;;;25.08;11.70;;;2.70;86.20;;;;;;5030966;28;20203;-76
2020/12/03 07:45:53;;;;;;;28.20;11.98;;;2.70;85.50;;;;;;5031357;28;20307;-76
2020/12/03 07:48:31;;;;;;;31.27;11.57;;;2.70;84.90;;;;;;5030886;28;20248;-74
2020/12/03 07:51:03;;;;;;;27.77;10.95;;;2.80;84.90;;;;;;5029903;28;20444;-76
2020/12/03 07:53:30;;;;;;;25.58;11.82;;;2.80;85.20;;;;;;5028243;28;20201;-73
2020/12/03 07:55:57;;;;;;;25.00;10.40;;;2.80;84.60;;;;;;5024121;28;20258;-75
2020/12/03 07:58:36;;;;;;;25.55;10.30;;;2.80;84.40;;;;;;5018802;28;20193;-75
2020/12/03 08:01:05;;;;;;;20.08;10.48;;;2.80;84.30;;;;;;5016931;28;20193;-77
2020/12/03 08:03:50;;;;;;;23.55;10.60;;;2.80;84.00;;;;;;5024430;28;20239;-77
2020/12/03 08:06:24;;;;;;;20.58;8.55;;;2.90;83.80;;;;;;5024695;28;20646;-75
2020/12/03 08:09:04;;;;;;;14.02;7.07;;;2.90;82.50;;;;;;5021173;28;20209;-74
2020/12/03 08:11:39;;;;;;;16.15;6.75;;;2.90;81.70;;;;;;5058181;28;20193;-75
2020/12/03 08:14:43;;;;;;;14.40;7.88;;;3.00;79.30;;;;;;5018286;28;20652;-76
2020/12/03 08:17:18;;;;;;;15.98;7.65;;;3.10;79.20;;;;;;5013191;28;20236;-74
2020/12/03 08:20:11;;;;;;;14.70;6.22;;;3.10;78.60;;;;;;5020653;28;20288;-75
2020/12/03 08:22:47;;;;;;;12.32;6.03;;;3.20;78.00;;;;;;5018662;28;20240;-76
2020/12/03 08:25:30;;;;;;;18.33;7.10;;;3.20;77.40;;;;;;5020365;28;20208;-76
2020/12/03 08:28:00;;;;;;;15.50;7.72;;;3.20;75.90;;;;;;5025736;28;20174;-75
2020/12/03 08:30:38;;;;;;;14.38;6.30;;;3.30;75.90;;;;;;5055458;28;20205;-75
2020/12/03 08:33:14;;;;;;;13.68;6.68;;;3.30;76.10;;;;;;5016915;28;20181;-76
2020/12/03 08:35:41;;;;;;;13.30;6.15;;;3.30;75.10;;;;;;5023326;28;20190;-75
2020/12/03 08:38:08;;;;;;;15.90;7.78;;;3.30;75.50;;;;;;5021154;28;20644;-76
2020/12/03 08:40:36;;;;;;;16.55;8.13;;;3.20;76.50;;;;;;5021937;28;20311;-76
2020/12/03 08:43:08;;;;;;;22.67;8.38;;;3.20;78.00;;;;;;5025530;28;20206;-74
2020/12/03 08:45:43;;;;;;;16.80;7.60;;;3.20;78.40;;;;;;5016907;28;20214;-75
2020/12/03 08:48:15;;;;;;;20.00;9.18;;;3.10;78.40;;;;;;5024664;28;20387;-74
2020/12/03 08:50:41;;;;;;;24.15;8.93;;;3.10;79.00;;;;;;5017213;28;20292;-76
2020/12/03 08:53:09;;;;;;;23.92;10.32;;;3.10;79.60;;;;;;5030507;28;20209;-74
2020/12/03 08:55:38;;;;;;;22.25;9.80;;;3.10;80.00;;;;;;5025733;28;20272;-77
2020/12/03 08:58:05;;;;;;;21.92;9.30;;;3.00;80.50;;;;;;5027953;28;20274;-76
2020/12/03 09:00:35;;;;;;;21.67;10.45;;;3.00;81.20;;;;;;5015112;28;20207;-77
2020/12/03 09:03:04;;;;;;;24.40;10.07;;;2.90;81.80;;;;;;5030063;28;20815;-76
2020/12/03 09:05:31;;;;;;;22.05;10.55;;;2.90;81.80;;;;;;5030652;28;20224;-74
2020/12/03 09:07:58;;;;;;;20.88;9.52;;;2.90;81.70;;;;;;5036735;28;20614;-76
2020/12/03 09:10:25;;;;;;;22.75;10.02;;;3.00;81.70;;;;;;5027917;28;20213;-74
2020/12/03 09:12:52;;;;;;;21.23;10.25;;;3.00;81.80;;;;;;5026812;28;20197;-76
2020/12/03 09:15:19;;;;;;;20.33;10.15;;;3.00;81.80;;;;;;5026782;28;20267;-74
2020/12/03 09:17:51;;;;;;;27.65;11.52;;;3.20;82.20;;;;;;5025776;28;20202;-76
2020/12/03 09:20:17;;;;;;;19.65;10.50;;;3.20;81.90;;;;;;5026008;28;20299;-77
2020/12/03 09:22:43;;;;;;;22.38;10.63;;;3.20;81.90;;;;;;5027400;28;20189;-75
2020/12/03 09:25:11;;;;;;;25.75;11.20;;;3.10;82.20;;;;;;5028778;28;20216;-75
2020/12/03 09:27:48;;;;;;;26.45;10.98;;;3.20;82.50;;;;;;5027595;28;20185;-76
2020/12/03 09:30:17;;;;;;;20.75;10.10;;;3.10;82.20;;;;;;5018949;28;20201;-76
2020/12/03 09:32:45;;;;;;;23.70;11.00;;;3.10;82.70;;;;;;5018976;28;20178;-76
2020/12/03 09:35:11;;;;;;;21.63;11.02;;;3.10;81.90;;;;;;5029084;28;20556;-75
2020/12/03 09:37:40;;;;;;;20.88;9.88;;;3.10;81.40;;;;;;5028074;28;20200;-76
2020/12/03 09:40:09;;;;;;;33.72;10.70;;;3.20;80.90;;;;;;5029432;28;20224;-76
2020/12/03 09:42:43;;;;;;;20.80;9.90;;;3.30;80.90;;;;;;5014092;28;20522;-74
2020/12/03 09:45:13;;;;;;;22.45;10.27;;;3.50;80.50;;;;;;5015981;28;20205;-76
2020/12/03 09:47:41;;;;;;;21.60;11.45;;;3.70;79.90;;;;;;5029092;28;20183;-75
2020/12/03 09:50:07;;;;;;;23.50;11.00;;;3.90;80.30;;;;;;5029687;28;20201;-76
2020/12/03 09:52:35;;;;;;;24.87;11.33;;;3.90;80.30;;;;;;5032731;28;20192;-73
2020/12/03 09:55:09;;;;;;;23.38;10.88;;;4.00;79.30;;;;;;5031541;28;20941;-76
2020/12/03 09:57:35;;;;;;;23.00;10.30;;;3.90;78.70;;;;;;5024273;28;20188;-76
2020/12/03 10:00:03;;;;;;;23.77;10.55;;;3.90;78.60;;;;;;5026574;28;20232;-75
2020/12/03 10:02:54;;;;;;;20.10;9.27;;;3.80;77.10;;;;;;5012988;28;20189;-75
2020/12/03 10:05:38;;;;;;;19.45;9.18;;;3.60;77.40;;;;;;5036760;28;20216;-77
2020/12/03 10:08:26;;;;;;;25.55;10.27;;;3.60;78.40;;;;;;5024649;28;20189;-76
2020/12/03 10:11:06;;;;;;;26.02;11.55;;;3.70;78.70;;;;;;5038960;28;20648;-76
2020/12/03 10:13:52;;;;;;;19.65;8.70;;;3.70;78.90;;;;;;5040405;28;20222;-75
2020/12/03 10:16:22;;;;;;;19.85;8.70;;;3.70;78.10;;;;;;5032178;28;20184;-75
2020/12/03 10:19:03;;;;;;;21.77;9.65;;;3.70;77.60;;;;;;5033091;28;20618;-74
2020/12/03 10:21:35;;;;;;;26.83;9.50;;;3.60;77.40;;;;;;5031773;28;20601;-74
2020/12/03 10:24:14;;;;;;;21.98;10.50;;;3.50;77.60;;;;;;5032637;28;20200;-75
2020/12/03 10:26:39;;;;;;;25.02;10.95;;;3.50;78.70;;;;;;5032812;28;20424;-76
2020/12/03 10:29:24;;;;;;;20.47;9.93;;;3.50;79.50;;;;;;5031853;28;20699;-77
2020/12/03 10:31:51;;;;;;;20.70;10.40;;;3.60;78.40;;;;;;5030044;28;20250;-76
2020/12/03 10:34:18;;;;;;;21.70;9.73;;;3.50;77.70;;;;;;5031682;28;20189;-76
2020/12/03 10:36:47;;;;;;;20.27;10.52;;;3.50;78.00;;;;;;5031650;28;20284;-75
2020/12/03 10:39:15;;;;;;;19.40;9.68;;;3.60;77.80;;;;;;5027852;28;20225;-77
2020/12/03 10:41:45;;;;;;;24.08;10.10;;;3.70;76.80;;;;;;5022181;28;20277;-75
2020/12/03 10:44:18;;;;;;;21.65;9.30;;;3.80;76.40;;;;;;5032421;28;20201;-75
2020/12/03 10:46:49;;;;;;;18.65;8.90;;;3.80;75.90;;;;;;5033195;28;20304;-75
2020/12/03 10:49:17;;;;;;;14.32;7.40;;;3.80;75.20;;;;;;5031624;28;20202;-75
2020/12/03 10:51:44;;;;;;;19.23;9.32;;;3.80;74.80;;;;;;5031402;28;20217;-76
2020/12/03 10:54:15;;;;;;;19.60;9.90;;;3.70;74.90;;;;;;5033292;28;20189;-76
2020/12/03 10:56:43;;;;;;;17.45;9.13;;;3.80;75.20;;;;;;5031583;28;20602;-76
2020/12/03 10:59:18;;;;;;;18.40;8.55;;;3.90;74.90;;;;;;5031835;28;20213;-76
2020/12/03 11:01:49;;;;;;;17.50;9.35;;;3.90;74.50;;;;;;5030916;28;20184;-75
2020/12/03 11:04:16;;;;;;;16.42;8.05;;;3.90;74.30;;;;;;5031080;28;20534;-76
2020/12/03 11:06:42;;;;;;;19.73;9.63;;;3.90;73.30;;;;;;5027936;28;20216;-75
2020/12/03 11:09:18;;;;;;;17.53;8.37;;;3.90;73.90;;;;;;5054241;28;20205;-75
2020/12/03 11:11:44;;;;;;;19.10;8.98;;;3.90;72.70;;;;;;5033424;28;20434;-77
2020/12/03 11:14:11;;;;;;;19.88;9.00;;;3.90;72.60;;;;;;5033043;28;20182;-74
2020/12/03 11:16:42;;;;;;;22.45;8.65;;;3.80;72.70;;;;;;5032552;28;20189;-76
2020/12/03 11:19:15;;;;;;;15.65;7.72;;;3.80;73.30;;;;;;5025974;28;20710;-74
2020/12/03 11:21:48;;;;;;;14.68;7.90;;;3.80;72.90;;;;;;5018319;28;20201;-76
2020/12/03 11:24:47;;;;;;;17.50;8.48;;;3.80;72.90;;;;;;5032112;28;20196;-75
2020/12/03 11:27:18;;;;;;;21.50;9.48;;;3.80;73.30;;;;;;5028676;28;20593;-76
2020/12/03 11:29:44;;;;;;;18.05;8.98;;;3.80;73.00;;;;;;5032613;28;20557;-77
2020/12/03 11:32:09;;;;;;;13.67;7.73;;;3.90;73.50;;;;;;5031290;28;20272;-76
2020/12/03 11:34:37;;;;;;;15.33;7.83;;;3.90;72.90;;;;;;5031492;28;20681;-74
2020/12/03 11:37:03;;;;;;;17.77;8.20;;;3.80;72.60;;;;;;5032038;28;20212;-75
2020/12/03 11:39:30;;;;;;;13.50;6.85;;;3.80;73.60;;;;;;5032468;28;20240;-76
2020/12/03 11:42:32;;;;;;;17.17;8.00;;;3.80;73.30;;;;;;5024356;28;20196;-76
2020/12/03 11:48:06;;;;;;;16.45;8.23;;;3.80;73.20;;;;;;5023816;28;20663;-75
2020/12/03 11:50:37;;;;;;;19.02;8.20;;;3.80;73.60;;;;;;5034111;28;20213;-74
2020/12/03 11:53:03;;;;;;;20.80;7.57;;;3.80;73.90;;;;;;5037358;28;20189;-76
2020/12/03 11:55:29;;;;;;;13.85;7.43;;;3.90;73.30;;;;;;5038384;28;20181;-75
2020/12/03 11:58:05;;;;;;;16.80;7.60;;;4.00;73.50;;;;;;5034346;28;20855;-77
2020/12/03 12:00:31;;;;;;;12.98;6.20;;;4.00;72.70;;;;;;5031689;28;20204;-75
2020/12/03 12:02:58;;;;;;;16.83;7.05;;;4.00;72.70;;;;;;5030772;28;20730;-76
2020/12/03 12:13:30;;;;;;;19.20;7.70;;;3.90;74.00;;;;;;5017301;28;20602;-74
2020/12/03 12:15:55;;;;;;;14.50;7.20;;;4.00;73.60;;;;;;5018083;28;20194;-74
2020/12/03 12:18:21;;;;;;;21.97;8.43;;;4.10;73.70;;;;;;5031482;28;20479;-76
2020/12/03 12:20:48;;;;;;;15.53;7.23;;;4.20;73.20;;;;;;5030066;28;20225;-77
2020/12/03 12:23:14;;;;;;;12.55;7.32;;;4.10;73.00;;;;;;5017376;28;20197;-75
2020/12/03 12:25:40;;;;;;;16.63;7.63;;;4.00;73.30;;;;;;5030344;28;20205;-76
2020/12/03 12:28:05;;;;;;;18.40;7.77;;;4.00;73.60;;;;;;5031600;28;20240;-76
2020/12/03 12:30:32;;;;;;;14.60;7.53;;;4.10;73.70;;;;;;5030233;28;20636;-76
2020/12/03 12:32:58;;;;;;;16.27;7.47;;;4.20;73.60;;;;;;5028067;28;20435;-76
2020/12/03 12:35:24;;;;;;;15.68;8.10;;;4.20;73.60;;;;;;5030388;28;20192;-75
2020/12/03 12:37:50;;;;;;;15.85;7.85;;;4.20;73.70;;;;;;5030142;28;20274;-76
2020/12/03 12:40:16;;;;;;;16.83;8.27;;;4.20;74.00;;;;;;5016685;28;20307;-77
2020/12/03 12:42:42;;;;;;;14.90;6.87;;;4.30;73.90;;;;;;5028599;28;20205;-76
2020/12/03 12:45:08;;;;;;;22.80;7.80;;;4.40;73.30;;;;;;5028161;28;20436;-76
2020/12/03 12:47:33;;;;;;;19.93;8.83;;;4.30;73.50;;;;;;5029861;28;20569;-74
2020/12/03 12:49:59;;;;;;;15.10;6.90;;;4.20;73.70;;;;;;5029337;28;20204;-75
2020/12/03 12:52:25;;;;;;;14.13;7.27;;;4.30;74.00;;;;;;5029487;28;20184;-75
2020/12/03 12:54:51;;;;;;;15.20;7.03;;;4.30;73.90;;;;;;5029133;28;20182;-73
2020/12/03 12:57:18;;;;;;;14.43;7.20;;;4.30;74.00;;;;;;5016175;28;20428;-76
2020/12/03 12:59:44;;;;;;;13.00;6.60;;;4.30;74.00;;;;;;5018273;28;20464;-74
2020/12/03 13:02:09;;;;;;;14.17;6.77;;;4.20;74.20;;;;;;5028917;28;20201;-75
2020/12/03 13:04:35;;;;;;;17.10;7.77;;;4.20;74.30;;;;;;5028337;28;20275;-76
2020/12/03 13:07:05;;;;;;;21.40;8.27;;;4.10;74.30;;;;;;5029567;28;20209;-73
2020/12/03 13:09:32;;;;;;;18.20;7.07;;;4.10;74.30;;;;;;5025729;28;20208;-74
2020/12/03 13:11:58;;;;;;;16.73;7.82;;;4.20;74.90;;;;;;5015388;28;20177;-76
2020/12/03 13:14:27;;;;;;;20.48;7.82;;;4.30;74.80;;;;;;5018191;28;20185;-74
2020/12/03 13:16:54;;;;;;;18.20;6.82;;;4.30;74.60;;;;;;5017929;28;20185;-75